Terminal Aerodrome Forecast
Issued by NWS

Home | Current Version | Previous Version | Text Only | Print | Product List | Glossary On
Versions: 1 2 3 4 5 6 7 8 9 10 11 12 13 14 15 16 17 18
000
FTUS43 KDTX 241222 AAA
TAFPTK
TAF AMD
KPTK 241222Z 2412/2512 20011KT P6SM SCT060 BKN150 WS020/23045KT
     FM241500 22014G25KT P6SM BKN070
     FM250000 23010KT P6SM OVC025
     FM250300 VRB05KT 3SM -RA BR OVC009
     FM250700 04006KT 1SM -RA BR OVC006=

USA.gov is the U.S. government's official web portal to all federal, state and local government web resources and services.